Moran, Iowa
Current Conditions -  °F | °C
As of 3:35 AM on Monday 24 Nov 2014 (Local Time) from KPRO Reporting Station
Overcast Overcast  
Wind Chill: 19°   Ceiling: 2100
Heat Index: 30°   Visibility: 10mi
Dew Point: 25°   Wind: 16mph
Humidity: 80%   Direction: 310°NW
Pressure: 29.43"   Gusts: 24mph
Location:  41.8164°N, 93.8864°W
Report Text: KPRO 240935Z AUTO 31014G21KT 10SM OVC021 M01/M04 A2943 RMK AO2 T10101041
Loading
Personal Weather Stations






























Interactive Weather Map New forecast layout! Learn more

10-Day Weather Forecast

Advertisements
Track Severe Weather on mobile